Time;durP1;ratioP1;P1;durP2;ratioP2;P2;SDS_P1;SDS_P2;PMS_P1;PMS_P2;Temp;Humidity;BMP_temperature;BMP_pressure;BME280_temperature;BME280_humidity;BME280_pressure;Samples;Min_cycle;Max_cycle;Signal;HPM_P1;HPM_P2
2023/04/14 00:01:34;;;;;;;10.05;5.30;;;;;;;1.56;100.00;160980.13;5091391;28;20016;-62
2023/04/14 00:03:59;;;;;;;5.55;5.05;;;;;;;1.56;100.00;160980.13;5089653;28;20020;-62
2023/04/14 00:06:26;;;;;;;9.95;5.72;;;;;;;1.57;100.00;160982.81;5090935;28;20039;-62
2023/04/14 00:08:51;;;;;;;13.90;5.97;;;;;;;1.47;100.00;160955.97;5091096;28;20031;-62
2023/04/14 00:11:17;;;;;;;8.07;6.03;;;;;;;1.39;100.00;160934.50;5090027;28;20043;-62
2023/04/14 00:13:42;;;;;;;6.70;4.70;;;;;;;1.27;100.00;160903.63;5090831;28;20475;-62
2023/04/14 00:16:07;;;;;;;7.93;4.97;;;;;;;1.20;100.00;160884.84;5089546;28;20414;-62
2023/04/14 00:18:33;;;;;;;6.20;5.63;;;;;;;1.11;100.00;160862.06;5090694;28;20028;-62
2023/04/14 00:20:58;;;;;;;6.20;5.43;;;;;;;1.12;100.00;160863.44;5088628;28;20063;-62
2023/04/14 00:23:23;;;;;;;10.07;5.63;;;;;;;1.12;100.00;160864.75;5090713;28;20020;-62
2023/04/14 00:25:49;;;;;;;7.18;5.13;;;;;;;1.06;100.00;160848.69;5089539;28;20039;-62
2023/04/14 00:28:15;;;;;;;9.57;5.00;;;;;;;1.02;100.00;160837.91;5090392;28;20138;-61
2023/04/14 00:30:40;;;;;;;15.77;6.93;;;;;;;1.01;100.00;160835.22;5089369;28;20036;-62
2023/04/14 00:33:05;;;;;;;10.85;6.63;;;;;;;0.99;100.00;160831.22;5090336;28;20028;-62
2023/04/14 00:35:31;;;;;;;21.75;8.55;;;;;;;1.00;100.00;160832.59;5089417;28;20036;-62
2023/04/14 00:37:57;;;;;;;8.38;6.00;;;;;;;1.06;100.00;160848.69;5090728;28;20028;-62
2023/04/14 00:40:23;;;;;;;10.20;5.95;;;;;;;1.07;100.00;160851.38;5089712;28;20044;-62
2023/04/14 00:42:49;;;;;;;6.28;4.90;;;;;;;1.03;100.00;160840.59;5090444;28;20067;-62
2023/04/14 00:45:15;;;;;;;9.88;6.20;;;;;;;0.99;100.00;160831.22;5089139;28;20123;-62
2023/04/14 00:47:45;;;;;;;8.70;6.15;;;;;;;0.98;100.00;160827.22;5090729;28;20028;-62
2023/04/14 00:50:11;;;;;;;9.13;6.15;;;;;;;0.95;100.00;160821.84;5088941;28;20379;-62
2023/04/14 00:52:37;;;;;;;9.57;6.72;;;;;;;0.98;100.00;160827.22;5090557;28;20038;-62
2023/04/14 00:55:04;;;;;;;26.27;6.85;;;;;;;0.99;100.00;160829.91;5089052;28;20544;-62
2023/04/14 00:57:30;;;;;;;8.73;4.78;;;;;;;1.03;100.00;160840.59;5090559;28;20050;-62
2023/04/14 00:59:57;;;;;;;5.97;4.65;;;;;;;1.05;100.00;160845.97;5088379;28;20044;-62
2023/04/14 01:02:24;;;;;;;7.30;6.53;;;;;;;1.08;100.00;160854.06;5090635;28;20020;-62
2023/04/14 01:04:50;;;;;;;5.95;5.30;;;;;;;1.02;100.00;160837.91;5089290;28;20468;-62
2023/04/14 01:07:16;;;;;;;14.63;6.55;;;;;;;1.06;100.00;160848.69;5070658;28;20059;-63
2023/04/14 01:09:41;;;;;;;11.75;6.55;;;;;;;1.02;100.00;160837.91;5069975;28;20460;-61
2023/04/14 01:12:48;;;;;;;8.40;5.03;;;;;;;1.00;100.00;160832.59;5070184;28;20027;-65
2023/04/14 01:15:40;;;;;;;11.93;6.65;;;;;;;0.89;100.00;160805.75;5068668;28;20044;-65
2023/04/14 01:18:23;;;;;;;6.85;6.15;;;;;;;0.83;100.00;160789.66;5070165;28;20094;-65
2023/04/14 01:20:53;;;;;;;6.80;6.15;;;;;;;0.75;100.00;160768.22;5068244;28;20044;-64
2023/04/14 01:23:28;;;;;;;8.45;6.38;;;;;;;0.76;100.00;160770.91;5073608;28;20119;-63
2023/04/14 01:26:14;;;;;;;7.38;6.25;;;;;;;0.71;100.00;160758.81;5088510;28;20044;-63
2023/04/14 01:29:02;;;;;;;12.18;6.93;;;;;;;0.69;100.00;160753.44;5090003;28;20127;-63
2023/04/14 01:31:46;;;;;;;16.50;8.85;;;;;;;0.67;100.00;160746.75;5089045;28;20051;-63
2023/04/14 01:34:50;;;;;;;16.98;7.80;;;;;;;0.60;100.00;160729.31;5088738;28;20036;-62
2023/04/14 01:37:20;;;;;;;9.20;7.65;;;;;;;0.57;100.00;160722.59;5081774;28;20399;-63
2023/04/14 01:39:53;;;;;;;10.73;6.80;;;;;;;0.54;100.00;160714.59;5092779;28;20036;-63
2023/04/14 01:42:23;;;;;;;13.98;7.90;;;;;;;0.49;100.00;160701.16;5093847;28;20081;-62
2023/04/14 01:44:55;;;;;;;21.17;10.40;;;;;;;0.46;100.00;160693.13;5092389;28;20043;-62
2023/04/14 01:47:23;;;;;;;18.33;9.02;;;;;;;0.41;100.00;160679.75;5094019;28;20492;-63
2023/04/14 01:49:50;;;;;;;7.03;5.30;;;;;;;0.39;100.00;160674.38;5092182;28;20119;-63
2023/04/14 01:52:18;;;;;;;8.43;5.40;;;;;;;0.36;100.00;160666.31;5093615;28;20422;-62
2023/04/14 01:54:44;;;;;;;11.07;6.75;;;;;;;0.29;100.00;160650.22;5092488;28;20564;-63
2023/04/14 01:57:11;;;;;;;7.13;5.68;;;;;;;0.33;100.00;160659.63;5092154;28;20043;-64
2023/04/14 01:59:40;;;;;;;12.35;7.03;;;;;;;0.28;100.00;160647.53;5091895;28;20142;-64
2023/04/14 02:02:07;;;;;;;7.82;7.10;;;;;;;0.24;100.00;160636.84;5093647;28;20024;-63
2023/04/14 02:04:35;;;;;;;9.43;7.10;;;;;;;0.18;100.00;160620.78;5092120;28;20047;-63
2023/04/14 02:07:02;;;;;;;8.20;5.00;;;;;;;0.14;100.00;160610.00;5093139;28;20020;-63
2023/04/14 02:09:28;;;;;;;10.55;7.57;;;;;;;0.09;100.00;160596.63;5092076;28;20031;-62
2023/04/14 02:11:54;;;;;;;13.88;6.68;;;;;;;0.06;100.00;160588.56;5093212;28;20093;-64
2023/04/14 02:14:21;;;;;;;8.18;7.38;;;;;;;0.06;100.00;160588.56;5092031;28;20043;-64
2023/04/14 02:16:49;;;;;;;9.52;7.70;;;;;;;0.05;100.00;160585.88;5093495;28;20020;-64
2023/04/14 02:19:19;;;;;;;11.98;7.45;;;;;;;0.03;100.00;160580.56;5091404;28;20032;-64
2023/04/14 02:21:48;;;;;;;14.00;5.85;;;;;;;0.01;100.00;160575.19;5092922;28;20044;-64
2023/04/14 02:24:14;;;;;;;8.50;6.82;;;;;;;-0.05;100.00;160561.81;5091706;28;20368;-64
2023/04/14 02:26:52;;;;;;;10.48;7.40;;;;;;;-0.01;100.00;160572.50;5092900;28;20035;-64
2023/04/14 02:29:21;;;;;;;7.13;6.10;;;;;;;-0.03;100.00;160565.81;5091625;28;20050;-64
2023/04/14 02:32:04;;;;;;;10.60;7.57;;;;;;;-0.06;100.00;160559.13;5093058;28;20968;-64
2023/04/14 02:34:35;;;;;;;46.40;10.48;;;;;;;-0.07;100.00;160555.06;5091357;28;20075;-64
2023/04/14 02:37:07;;;;;;;8.68;6.55;;;;;;;-0.10;100.00;160548.38;5092820;28;20028;-63
2023/04/14 02:39:40;;;;;;;13.82;6.90;;;;;;;-0.14;100.00;160537.66;5091853;28;20036;-63
2023/04/14 02:42:13;;;;;;;14.00;8.82;;;;;;;-0.15;100.00;160534.97;5092293;28;20402;-63
2023/04/14 02:44:46;;;;;;;17.83;8.73;;;;;;;-0.14;100.00;160537.66;5091335;28;20189;-63
2023/04/14 02:47:20;;;;;;;12.98;8.30;;;;;;;-0.13;100.00;160540.34;5091876;28;20495;-63
2023/04/14 02:49:48;;;;;;;12.07;8.32;;;;;;;-0.12;100.00;160541.69;5090685;28;20097;-63
2023/04/14 02:52:16;;;;;;;13.32;8.38;;;;;;;-0.13;100.00;160540.34;5092398;28;20235;-63
2023/04/14 02:54:43;;;;;;;13.38;6.45;;;;;;;-0.15;100.00;160534.97;5091425;28;20507;-64
2023/04/14 02:57:09;;;;;;;8.30;7.22;;;;;;;-0.17;100.00;160529.59;5092096;28;20024;-64
2023/04/14 02:59:35;;;;;;;11.40;7.28;;;;;;;-0.25;100.00;160508.16;5090951;28;20044;-64
2023/04/14 03:02:03;;;;;;;12.40;7.72;;;;;;;-0.19;100.00;160524.28;5092260;28;20024;-64
2023/04/14 03:04:34;;;;;;;30.38;8.32;;;;;;;-0.20;100.00;160521.59;5090650;28;20495;-63
2023/04/14 03:07:04;;;;;;;18.05;7.90;;;;;;;-0.27;100.00;160502.84;5091829;28;20030;-64
2023/04/14 03:09:30;;;;;;;10.20;8.75;;;;;;;-0.28;100.00;160500.16;5091082;28;20040;-64
2023/04/14 03:11:57;;;;;;;8.35;7.10;;;;;;;-0.36;100.00;160481.41;5091686;28;20026;-64
2023/04/14 03:14:22;;;;;;;15.32;7.35;;;;;;;-0.40;100.00;160470.66;5090897;28;20043;-64
2023/04/14 03:16:50;;;;;;;14.90;8.63;;;;;;;-0.43;100.00;160461.28;5091900;28;20022;-64
2023/04/14 03:19:19;;;;;;;15.47;8.47;;;;;;;-0.59;100.00;160421.09;5090440;28;20606;-64
2023/04/14 03:21:45;;;;;;;15.15;8.00;;;;;;;-0.46;100.00;160454.59;5091876;28;20996;-64
2023/04/14 03:24:14;;;;;;;22.13;9.50;;;;;;;-0.43;100.00;160462.66;5090567;28;20089;-64
2023/04/14 03:26:40;;;;;;;;;;;;;;;-0.43;100.00;160462.66;5092649;28;20027;-64
2023/04/14 03:29:08;;;;;;;13.15;9.13;;;;;;;-0.46;100.00;160454.59;5089944;28;19911;-62
2023/04/14 03:31:35;;;;;;;10.82;9.70;;;;;;;-0.48;100.00;160449.22;5092082;28;20149;-63
2023/04/14 03:34:03;;;;;;;12.40;8.93;;;;;;;-0.54;100.00;160433.16;5089897;28;20038;-63
2023/04/14 03:36:30;;;;;;;9.45;8.40;;;;;;;-0.63;100.00;160410.38;5092114;28;20102;-62
2023/04/14 03:39:00;;;;;;;15.65;9.80;;;;;;;-0.66;100.00;160403.69;5090453;28;20031;-62
2023/04/14 03:41:26;;;;;;;15.35;9.77;;;;;;;-0.68;100.00;160398.34;5091455;28;20391;-62
2023/04/14 03:43:55;;;;;;;15.13;9.30;;;;;;;-0.66;100.00;160402.34;5091136;28;20059;-62
2023/04/14 03:46:22;;;;;;;11.48;8.98;;;;;;;-0.68;100.00;160398.34;5090535;28;20380;-62
2023/04/14 03:48:50;;;;;;;21.33;7.85;;;;;;;-0.71;100.00;160390.28;5091196;28;20031;-59
2023/04/14 03:51:17;;;;;;;15.00;9.90;;;;;;;-0.72;100.00;160387.63;5089937;28;20156;-59
2023/04/14 03:53:45;;;;;;;13.45;8.88;;;;;;;-0.73;100.00;160384.94;5091650;28;20020;-61
2023/04/14 03:56:12;;;;;;;13.48;10.20;;;;;;;-0.74;100.00;160380.91;5089590;28;20082;-61
2023/04/14 03:58:40;;;;;;;15.32;8.82;;;;;;;-0.78;100.00;160371.53;5090444;28;20020;-61
2023/04/14 04:01:06;;;;;;;12.57;9.38;;;;;;;-0.85;100.00;160354.16;5089667;28;20032;-62
2023/04/14 04:03:34;;;;;;;9.95;7.40;;;;;;;-0.85;100.00;160352.78;5091355;28;20027;-61
2023/04/14 04:05:59;;;;;;;15.82;9.15;;;;;;;-0.86;100.00;160350.16;5089539;28;20040;-61
2023/04/14 04:08:26;;;;;;;15.73;10.02;;;;;;;-0.83;100.00;160358.16;5091554;28;20039;-62
2023/04/14 04:10:53;;;;;;;19.33;9.32;;;;;;;-0.83;100.00;160358.16;5089172;28;20046;-62
2023/04/14 04:13:19;;;;;;;14.13;8.77;;;;;;;-0.86;100.00;160351.47;5086070;28;20032;-59
2023/04/14 04:15:46;;;;;;;12.90;8.45;;;;;;;-0.90;100.00;160340.75;5089194;28;20066;-59
2023/04/14 04:18:15;;;;;;;11.45;9.43;;;;;;;-0.88;100.00;160344.78;5090822;28;20083;-59
2023/04/14 04:20:41;;;;;;;13.35;8.75;;;;;;;-0.91;100.00;160336.72;5076878;28;20052;-59
2023/04/14 04:23:08;;;;;;;10.38;8.15;;;;;;;-0.94;100.00;160330.03;5090616;28;20020;-59
2023/04/14 04:25:38;;;;;;;10.38;8.38;;;;;;;-0.96;100.00;160324.66;5089120;28;20050;-59
2023/04/14 04:28:03;;;;;;;9.85;8.63;;;;;;;-0.94;100.00;160328.72;5090014;28;20042;-59
2023/04/14 04:30:30;;;;;;;12.07;9.80;;;;;;;-0.90;100.00;160339.41;5089590;28;20048;-60
2023/04/14 04:32:56;;;;;;;13.90;10.20;;;;;;;-0.85;100.00;160354.16;5090493;28;20133;-58
2023/04/14 04:35:23;;;;;;;9.00;8.02;;;;;;;-0.84;100.00;160356.81;5089143;28;20502;-58
2023/04/14 04:37:49;;;;;;;18.25;10.95;;;;;;;-0.85;100.00;160354.16;5081868;28;20025;-58
2023/04/14 04:40:14;;;;;;;14.10;9.18;;;;;;;-0.84;100.00;160356.81;5068816;28;20457;-58
2023/04/14 04:42:41;;;;;;;19.13;9.13;;;;;;;-0.83;100.00;160358.16;5070448;28;20085;-58
2023/04/14 04:45:06;;;;;;;11.63;8.82;;;;;;;-0.85;100.00;160354.16;5069233;28;20036;-58
2023/04/14 04:47:32;;;;;;;11.65;9.20;;;;;;;-0.82;100.00;160362.16;5070434;28;20051;-57
2023/04/14 04:49:57;;;;;;;14.02;10.38;;;;;;;-0.83;100.00;160359.50;5067532;28;20039;-57
2023/04/14 04:52:22;;;;;;;10.57;8.85;;;;;;;-0.86;100.00;160351.47;5070608;28;20021;-57
2023/04/14 04:54:51;;;;;;;17.52;9.48;;;;;;;-0.83;100.00;160358.16;5068880;28;20492;-57
2023/04/14 04:57:17;;;;;;;13.63;9.80;;;;;;;-0.84;100.00;160355.47;5070847;28;20370;-57
2023/04/14 04:59:42;;;;;;;14.52;10.52;;;;;;;-0.84;100.00;160355.47;5069384;28;20112;-58
2023/04/14 05:02:07;;;;;;;13.55;10.52;;;;;;;-0.81;100.00;160363.53;5069750;28;20021;-57
2023/04/14 05:04:33;;;;;;;11.57;10.10;;;;;;;-0.81;100.00;160363.53;5069089;28;20040;-58
2023/04/14 05:06:58;;;;;;;11.00;8.43;;;;;;;-0.94;100.00;160328.72;5070323;28;20526;-57
2023/04/14 05:09:23;;;;;;;13.35;10.70;;;;;;;-0.76;100.00;160375.56;5068702;28;20047;-57
2023/04/14 05:11:49;;;;;;;16.00;10.82;;;;;;;-0.77;100.00;160374.22;5074176;28;20023;-57
2023/04/14 05:14:14;;;;;;;21.30;13.52;;;;;;;-0.73;100.00;160383.59;5073080;28;20040;-58
2023/04/14 05:16:40;;;;;;;16.30;10.43;;;;;;;-0.73;100.00;160384.94;5074315;28;20028;-57
2023/04/14 05:19:05;;;;;;;10.80;8.73;;;;;;;-0.72;100.00;160387.63;5072352;28;20021;-58
2023/04/14 05:21:31;;;;;;;17.25;11.52;;;;;;;-0.69;100.00;160395.66;5074207;28;20672;-57
2023/04/14 05:23:57;;;;;;;14.55;11.30;;;;;;;-0.68;100.00;160398.34;5072795;28;20028;-57
2023/04/14 05:26:22;;;;;;;17.63;12.45;;;;;;;-0.65;100.00;160406.38;5073879;28;20540;-57
2023/04/14 05:28:47;;;;;;;29.35;14.68;;;;;;;-0.65;100.00;160406.38;5074036;28;20032;-57
2023/04/14 05:31:13;;;;;;;19.05;13.30;;;;;;;-0.53;100.00;160437.22;5072279;28;20515;-57
2023/04/14 05:33:38;;;;;;;20.83;12.23;;;;;;;-0.47;100.00;160451.91;5073829;28;20356;-57
2023/04/14 05:36:04;;;;;;;16.88;11.98;;;;;;;-0.41;100.00;160467.97;5072015;28;20036;-57
2023/04/14 05:38:30;;;;;;;18.30;12.60;;;;;;;-0.36;100.00;160480.03;5074218;28;20029;-57
2023/04/14 05:40:55;;;;;;;14.60;11.60;;;;;;;-0.29;100.00;160498.78;5071881;28;20041;-58
2023/04/14 05:43:21;;;;;;;14.85;11.20;;;;;;;-0.25;100.00;160508.16;5073617;28;20089;-57
2023/04/14 05:45:46;;;;;;;14.27;12.40;;;;;;;-0.15;100.00;160534.97;5072303;28;20045;-57
2023/04/14 05:48:13;;;;;;;17.45;13.23;;;;;;;-0.07;100.00;160556.44;5073043;28;20033;-57
2023/04/14 05:50:38;;;;;;;15.43;12.48;;;;;;;-0.02;100.00;160569.81;5072403;28;20097;-57
2023/04/14 05:53:04;;;;;;;14.18;12.52;;;;;;;0.15;100.00;160612.72;5073355;28;20028;-58
2023/04/14 05:55:29;;;;;;;17.98;13.32;;;;;;;0.19;100.00;160622.09;5071869;28;20086;-59
2023/04/14 05:57:55;;;;;;;21.33;12.52;;;;;;;0.19;100.00;160623.41;5073349;28;20021;-59
2023/04/14 06:00:22;;;;;;;13.93;11.98;;;;;;;0.25;100.00;160639.53;5072188;28;20036;-59
2023/04/14 06:02:47;;;;;;;14.27;12.98;;;;;;;0.33;100.00;160658.28;5073355;28;20020;-59
2023/04/14 06:05:12;;;;;;;17.40;13.10;;;;;;;0.43;100.00;160685.06;5071974;28;20515;-59
2023/04/14 06:07:40;;;;;;;21.50;14.93;;;;;;;0.54;100.00;160714.59;5073107;28;20033;-59
2023/04/14 06:10:06;;;;;;;18.15;13.85;;;;;;;0.68;100.00;160750.75;5071465;28;20047;-59
2023/04/14 06:12:31;;;;;;;20.70;15.30;;;;;;;0.90;100.00;160808.44;5073357;28;20483;-59
2023/04/14 06:14:57;;;;;;;21.73;15.52;;;;;;;1.05;100.00;160845.97;5071707;28;20384;-59
2023/04/14 06:17:22;;;;;;;21.98;19.58;;;;;;;1.17;100.00;160876.84;5073025;28;20047;-59
2023/04/14 06:19:48;;;;;;;27.25;18.25;;;;;;;1.35;100.00;160923.78;5071543;28;20531;-59
2023/04/14 06:22:17;;;;;;;26.73;19.27;;;;;;;1.51;100.00;160966.72;5071944;28;20407;-59
2023/04/14 06:24:43;;;;;;;20.17;17.38;;;;;;;1.73;100.00;161023.06;5071601;28;20078;-59
2023/04/14 06:27:09;;;;;;;56.47;20.73;;;;;;;1.96;100.00;161083.44;5072825;28;20025;-59
2023/04/14 06:29:34;;;;;;;24.05;18.52;;;;;;;2.23;100.00;161153.25;5071174;28;20106;-59
2023/04/14 06:32:00;;;;;;;25.33;19.00;;;;;;;2.51;100.00;161227.03;5072565;28;20410;-59
2023/04/14 06:34:25;;;;;;;25.98;19.95;;;;;;;2.80;100.00;161302.22;5071248;28;20086;-59
2023/04/14 06:36:51;;;;;;;26.27;17.15;;;;;;;3.07;100.00;161370.72;5070748;28;20391;-59
2023/04/14 06:39:18;;;;;;;21.77;15.00;;;;;;;3.33;100.00;161439.22;5069148;28;20029;-59
2023/04/14 06:41:44;;;;;;;30.40;17.38;;;;;;;3.57;100.00;161501.03;5070749;28;20502;-59
2023/04/14 06:44:09;;;;;;;19.65;14.98;;;;;;;3.85;100.00;161573.56;5069401;28;20024;-59
2023/04/14 06:46:35;;;;;;;16.80;12.35;;;;;;;4.04;100.00;161623.28;5070546;28;20029;-59
2023/04/14 06:49:01;;;;;;;14.00;12.60;;;;;;;4.23;100.00;161674.41;5070884;28;20035;-58
2023/04/14 06:51:26;;;;;;;19.20;12.23;;;;;;;4.45;100.00;161730.84;5066905;28;20378;-60
2023/04/14 06:53:52;;;;;;;22.20;9.75;;;;;;;4.61;100.00;161772.50;5071211;28;20020;-60
2023/04/14 06:56:17;;;;;;;19.20;10.55;;;;;;;4.82;100.00;161827.66;5070512;28;20491;-59
2023/04/14 06:58:43;;;;;;;15.93;10.18;;;;;;;4.99;100.00;161872.03;5072129;28;20028;-59
2023/04/14 07:01:08;;;;;;;16.75;9.30;;;;;;;5.23;100.00;161935.22;5070379;28;20043;-59
2023/04/14 07:03:33;;;;;;;12.65;7.68;;;;;;;5.52;100.00;162009.22;5072460;28;20078;-59
2023/04/14 07:06:03;;;;;;;10.07;8.77;;;;;;;5.78;100.00;162076.47;5070075;28;20564;-59
2023/04/14 07:08:31;;;;;;;14.13;7.43;;;;;;;6.15;100.00;162174.78;5071746;28;20480;-59
2023/04/14 07:11:09;;;;;;;6.93;5.65;;;;;;;6.64;100.00;162302.69;5070540;28;20114;-59
2023/04/14 07:13:34;;;;;;;7.25;6.03;;;;;;;7.23;100.00;162456.19;5072318;28;20099;-59
2023/04/14 07:16:01;;;;;;;14.75;6.70;;;;;;;8.06;100.00;162671.75;5069980;28;20491;-60
2023/04/14 07:18:27;;;;;;;10.85;6.18;;;;;;;9.50;100.00;163047.94;5071826;28;20024;-60
2023/04/14 07:20:53;;;;;;;12.65;6.22;;;;;;;11.15;100.00;163478.47;5069989;28;20507;-59
2023/04/14 07:23:18;;;;;;;8.55;5.40;;;;;;;12.66;100.00;163875.72;5071768;28;20032;-60
2023/04/14 07:25:47;;;;;;;10.23;5.63;;;;;;;13.94;100.00;164211.09;5070516;28;20032;-60
2023/04/14 07:28:13;;;;;;;7.55;5.65;;;;;;;14.33;100.00;164311.19;5071374;28;20127;-60
2023/04/14 07:30:38;;;;;;;15.15;6.38;;;;;;;14.36;100.00;164320.66;5070103;28;20395;-60
2023/04/14 07:33:03;;;;;;;9.70;5.70;;;;;;;14.80;100.00;164435.69;5071217;28;20027;-60
2023/04/14 07:35:29;;;;;;;8.73;5.00;;;;;;;15.99;100.00;164748.47;5070147;28;20044;-60
2023/04/14 07:37:54;;;;;;;11.25;4.68;;;;;;;16.73;100.00;164940.78;5071074;28;20017;-61
2023/04/14 07:40:20;;;;;;;16.65;6.07;;;;;;;17.09;100.00;165037.00;5069974;28;20415;-62
2023/04/14 07:42:45;;;;;;;8.15;4.38;;;;;;;17.31;100.00;165093.97;5071472;28;20020;-62
2023/04/14 07:45:11;;;;;;;9.10;4.57;;;;;;;17.43;100.00;165125.09;5069475;28;20064;-62
2023/04/14 07:47:36;;;;;;;14.10;5.32;;;;;;;16.38;100.00;164850.03;5071016;28;20024;-62
2023/04/14 07:50:02;;;;;;;8.40;4.97;;;;;;;17.01;100.00;165015.38;5069743;28;20044;-63
2023/04/14 07:52:28;;;;;;;10.60;4.78;;;;;;;17.07;100.00;165031.63;5071081;28;20036;-63
2023/04/14 07:54:53;;;;;;;9.10;4.10;;;;;;;16.26;100.00;164817.53;5069556;28;20045;-63
2023/04/14 07:57:19;;;;;;;11.50;4.97;;;;;;;16.08;100.00;164770.16;5070852;28;20028;-63
2023/04/14 07:59:44;;;;;;;17.85;4.85;;;;;;;16.43;100.00;164863.56;5069471;28;20033;-63
2023/04/14 08:02:10;;;;;;;10.70;4.43;;;;;;;16.77;100.00;164953.00;5070531;28;20028;-64
2023/04/14 08:04:35;;;;;;;8.57;4.25;;;;;;;16.56;100.00;164896.09;5069922;28;20040;-63
2023/04/14 08:07:01;;;;;;;10.68;4.50;;;;;;;16.80;100.00;164961.09;5070289;28;20047;-63
2023/04/14 08:09:26;;;;;;;15.07;4.32;;;;;;;17.33;100.00;165099.34;5069514;28;20033;-63
2023/04/14 08:11:52;;;;;;;8.18;3.80;;;;;;;17.70;100.00;165195.59;5070479;28;20029;-63
2023/04/14 08:14:17;;;;;;;10.52;4.40;;;;;;;-146.58;100.00;69501.63;5069341;28;20039;-63
2023/04/14 08:16:43;;;;;;;7.50;3.65;;;;;;;17.70;100.00;165195.59;5070932;28;20024;-63
2023/04/14 08:19:08;;;;;;;11.80;5.78;;;;;;;17.77;100.00;165214.56;5069024;28;20028;-63
2023/04/14 08:21:33;;;;;;;8.15;4.00;;;;;;;17.72;100.00;165202.38;5069348;28;20044;-62
2023/04/14 08:23:59;;;;;;;6.15;3.95;;;;;;;18.04;100.00;165285.09;5068568;28;20028;-62
2023/04/14 08:26:26;;;;;;;8.15;4.80;;;;;;;17.49;100.00;165140.03;5070849;28;20467;-62
2023/04/14 08:28:52;;;;;;;6.63;3.88;;;;;;;17.10;100.00;165039.72;5066271;28;20491;-62
2023/04/14 08:31:17;;;;;;;8.30;3.85;;;;;;;17.24;100.00;165076.34;5068643;28;20119;-62
2023/04/14 08:33:43;;;;;;;7.57;4.25;;;;;;;17.65;100.00;165183.41;5070543;28;20569;-62
2023/04/14 08:36:08;;;;;;;7.47;4.35;;;;;;;17.56;100.00;165159.00;5066569;28;20481;-62
2023/04/14 08:38:33;;;;;;;16.77;5.68;;;;;;;16.85;100.00;164971.97;5070492;28;20047;-62
2023/04/14 08:41:02;;;;;;;14.30;5.90;;;;;;;16.66;100.00;164923.16;5068795;28;20044;-62
2023/04/14 08:43:28;;;;;;;9.00;5.43;;;;;;;16.41;100.00;164858.19;5070627;28;20425;-62
2023/04/14 08:45:55;;;;;;;11.57;4.47;;;;;;;15.95;100.00;164736.28;5067907;28;20040;-62
2023/04/14 08:48:25;;;;;;;11.85;4.55;;;;;;;15.70;100.00;164671.22;5070504;28;20021;-62
2023/04/14 08:51:13;;;;;;;9.95;5.63;;;;;;;15.59;100.00;164641.47;5068862;28;20045;-62
2023/04/14 08:53:44;;;;;;;6.68;3.88;;;;;;;15.32;100.00;164571.03;5070228;28;20074;-62
2023/04/14 08:56:12;;;;;;;11.98;5.90;;;;;;;15.35;100.00;164580.50;5068668;28;20064;-59
2023/04/14 08:58:38;;;;;;;9.70;4.30;;;;;;;15.80;100.00;164696.94;5070676;28;20082;-59
2023/04/14 09:01:03;;;;;;;11.07;5.13;;;;;;;15.69;100.00;164668.50;5068488;28;20071;-59
2023/04/14 09:03:29;;;;;;;9.63;4.55;;;;;;;15.32;100.00;164571.03;5070589;28;20055;-59
2023/04/14 09:05:55;;;;;;;8.40;3.42;;;;;;;15.65;100.00;164659.03;5068358;28;20048;-59
2023/04/14 09:08:21;;;;;;;6.13;4.05;;;;;;;15.82;100.00;164702.38;5070131;28;20420;-60
2023/04/14 09:10:47;;;;;;;10.80;4.70;;;;;;;15.94;100.00;164733.56;5068936;28;20040;-59
2023/04/14 09:13:15;;;;;;;8.88;3.40;;;;;;;16.15;100.00;164790.44;5070467;28;20017;-59
2023/04/14 09:15:40;;;;;;;18.35;4.15;;;;;;;16.00;100.00;164749.81;5068347;28;20059;-59
2023/04/14 09:18:06;;;;;;;7.43;3.83;;;;;;;16.24;100.00;164813.44;5069361;28;20028;-60
2023/04/14 09:20:32;;;;;;;8.07;3.45;;;;;;;16.25;100.00;164814.81;5068651;28;20503;-60
2023/04/14 09:22:57;;;;;;;7.15;3.72;;;;;;;16.22;100.00;164808.06;5069333;28;20059;-59
2023/04/14 09:25:22;;;;;;;11.07;3.38;;;;;;;16.02;100.00;164755.22;5068503;28;20040;-59
2023/04/14 09:27:48;;;;;;;8.30;3.60;;;;;;;15.74;100.00;164682.06;5069261;28;20020;-59
2023/04/14 09:30:16;;;;;;;7.22;2.95;;;;;;;16.06;100.00;164764.72;5066093;28;20047;-60
2023/04/14 09:32:43;;;;;;;5.25;3.00;;;;;;;16.29;100.00;164825.63;5067768;28;20044;-60
2023/04/14 09:35:12;;;;;;;17.65;4.47;;;;;;;16.55;100.00;164894.72;5067511;28;20127;-59
2023/04/14 09:37:45;;;;;;;5.38;2.03;;;;;;;17.23;100.00;165072.28;5069211;28;20547;-60
2023/04/14 09:40:31;;;;;;;4.68;2.67;;;;;;;17.75;100.00;165210.53;5047622;28;20120;-59
2023/04/14 09:42:56;;;;;;;4.75;3.30;;;;;;;17.59;100.00;165168.47;5065138;28;20045;-58
2023/04/14 09:45:22;;;;;;;7.75;3.15;;;;;;;17.48;100.00;165138.69;5067918;28;20047;-58
2023/04/14 09:47:51;;;;;;;4.05;2.40;;;;;;;17.35;100.00;165104.78;5069823;28;20033;-58
2023/04/14 09:50:16;;;;;;;12.25;2.67;;;;;;;17.41;100.00;165121.03;5065198;28;20043;-58
2023/04/14 09:52:43;;;;;;;10.25;3.72;;;;;;;16.99;100.00;165009.94;5067644;28;20016;-58
2023/04/14 09:55:14;;;;;;;11.35;3.63;;;;;;;17.12;100.00;165045.16;5066896;28;20041;-58
2023/04/14 09:57:41;;;;;;;3.20;1.92;;;;;;;17.69;100.00;165194.22;5069558;28;20039;-58
2023/04/14 10:00:17;;;;;;;7.22;3.40;;;;;;;18.28;100.00;165347.47;5071203;28;20561;-58
2023/04/14 10:02:54;;;;;;;5.20;2.00;;;;;;;18.16;100.00;165317.69;5073151;28;20484;-58
2023/04/14 10:05:25;;;;;;;3.30;1.85;;;;;;;18.14;100.00;165310.84;5071684;28;20097;-57
2023/04/14 10:07:50;;;;;;;3.58;2.40;;;;;;;18.45;100.00;165392.22;5073008;28;20107;-58
2023/04/14 10:10:16;;;;;;;7.18;3.28;;;;;;;18.26;100.00;165343.44;5071012;28;20509;-58
2023/04/14 10:12:42;;;;;;;6.03;2.83;;;;;;;18.03;100.00;165283.75;5078285;28;20028;-58
2023/04/14 10:15:13;;;;;;;7.22;2.25;;;;;;;17.77;100.00;165215.91;5088670;28;20040;-58
2023/04/14 10:17:39;;;;;;;5.05;2.38;;;;;;;17.83;100.00;165229.50;5093443;28;20503;-58
2023/04/14 10:20:05;;;;;;;5.07;2.80;;;;;;;17.58;100.00;165165.75;5091316;28;20044;-59
2023/04/14 10:22:31;;;;;;;6.38;2.97;;;;;;;17.49;100.00;165140.03;5076017;28;20020;-58
2023/04/14 10:24:58;;;;;;;8.30;3.42;;;;;;;17.51;100.00;165145.44;5072138;28;20055;-58
2023/04/14 10:27:26;;;;;;;4.80;2.15;;;;;;;17.26;100.00;165081.75;5088374;28;20039;-58
2023/04/14 10:29:51;;;;;;;6.55;2.38;;;;;;;17.13;100.00;165047.88;5076317;28;20177;-58
2023/04/14 10:32:19;;;;;;;9.57;2.60;;;;;;;17.32;100.00;165096.63;5085919;28;20016;-58
2023/04/14 10:35:02;;;;;;;6.78;3.03;;;;;;;16.54;100.00;164890.66;5070908;28;20036;-57
2023/04/14 10:37:27;;;;;;;8.10;3.55;;;;;;;16.30;100.00;164828.34;5072457;28;20392;-57
2023/04/14 10:39:58;;;;;;;11.07;3.38;;;;;;;16.68;100.00;164928.59;5071133;28;20044;-58
2023/04/14 10:42:23;;;;;;;7.80;3.28;;;;;;;17.17;100.00;165055.97;5087349;28;20032;-58
2023/04/14 10:45:04;;;;;;;7.00;2.22;;;;;;;17.50;100.00;165142.72;5091585;28;20525;-58
2023/04/14 10:47:30;;;;;;;7.93;3.03;;;;;;;16.99;100.00;165009.94;5052978;28;20025;-58
2023/04/14 10:49:57;;;;;;;5.47;2.92;;;;;;;16.56;100.00;164896.09;5063987;28;20048;-58
2023/04/14 10:52:24;;;;;;;8.82;3.03;;;;;;;16.23;100.00;164810.78;5072483;28;20032;-58
2023/04/14 10:55:06;;;;;;;4.90;2.75;;;;;;;15.90;100.00;164724.09;5087728;28;20036;-58
2023/04/14 10:57:39;;;;;;;13.27;4.22;;;;;;;16.13;100.00;164783.66;5078606;28;21322;-59
2023/04/14 11:00:23;;;;;;;9.15;3.78;;;;;;;16.31;100.00;164832.41;5069055;28;20052;-58
2023/04/14 11:03:02;;;;;;;10.25;4.55;;;;;;;16.55;100.00;164893.38;5087304;28;20051;-57
2023/04/14 11:05:32;;;;;;;7.80;3.53;;;;;;;16.69;100.00;164931.31;5088895;28;20040;-58
2023/04/14 11:07:57;;;;;;;4.88;3.25;;;;;;;16.80;100.00;164961.09;5089228;28;20070;-58
2023/04/14 11:10:23;;;;;;;5.57;3.53;;;;;;;16.63;100.00;164915.06;5090301;28;20446;-58
2023/04/14 11:12:55;;;;;;;4.43;3.15;;;;;;;15.79;100.00;164694.22;5085553;28;20109;-58
2023/04/14 11:15:20;;;;;;;7.45;3.75;;;;;;;15.52;100.00;164625.22;5079423;28;20518;-58
2023/04/14 11:17:46;;;;;;;12.00;2.80;;;;;;;15.53;100.00;164626.56;5084288;28;20031;-58